LEAM Información de aeropuertos

Información de pistas
Pista 08 Longitud 10499 ft Ancho 148 ft
Elevación 26 ft Umbral 492 ft Rumbo 73
Pista 26 Longitud 10499 ft Ancho 148 ft
Elevación 70 ft Umbral 0 ft Rumbo 253
Frecuencias
Tipo APP Nombre APP Frequencia 118.35 MHZ
Tipo GND Nombre GND Frequencia 121.7 MHZ
Tipo TWR Nombre TWR Frequencia 118.35 MHZ
Radioayudas
Tipo NDB Nombre Almeria Frequencia 284 KHZ
Tipo NDB Nombre Almeria Frequencia 310 KHZ
Tipo VOR-DME Nombre Almeria Frequencia 114100 KHZ
Información meteorológica y NOTAM
ADDS - METARS form results

(1827 UTC 23 September 2020)
Data provider http://aviationweather.gov/metar/data/
 
METAR text: LEAM 231800Z 22011KT 190V260 CAVOK 24/19 Q1012
Conditions at: LEAM (ALMERIA AIRPORT , ES) observed 1800 UTC 23 September 2020
Temperature: 24.0°C (75°F)
Dewpoint: 19.0°C (66°F) [RH = 74%]
Pressure (altimeter): 29.88 inches Hg (1012.0 mb)
Winds: from the SW (220 degrees) at 13 MPH (11 knots; 5.7 m/s)
Visibility: 6 or more miles (10+ km)
Ceiling: ceiling and visibility are OK
Clouds: unknown
Weather: no significant weather observed at this time

METAR text: LEAM 231730Z 23012KT 190V280 CAVOK 24/19 Q1011
Conditions at: LEAM (ALMERIA AIRPORT , ES) observed 1730 UTC 23 September 2020
Temperature: 24.0°C (75°F)
Dewpoint: 19.0°C (66°F) [RH = 74%]
Pressure (altimeter): 29.85 inches Hg (1011.0 mb)
Winds: from the SW (230 degrees) at 14 MPH (12 knots; 6.2 m/s)
Visibility: 6 or more miles (10+ km)
Ceiling: ceiling and visibility are OK
Clouds: unknown
Weather: no significant weather observed at this time

Forecast for: LEAM (ALMERIA AIRPORT , ES)
Text: TAF LEAM 231400Z 2315/2415 23017KT 9999 FEW020 TX27/2414Z TN20/2406Z
Forecast period: 1500 to 1800 UTC 23 September 2020
Forecast type: FROM: standard forecast or significant change
Winds: from the SW (230 degrees) at 20 MPH (17 knots; 8.7 m/s)
Visibility: 6 or more miles (10+ km)
Ceiling: at least 12,000 feet AGL
Clouds: few clouds at 2000 feet AGL
Weather: no significant weather forecast for this period
Text: PROB30
Forecast period: 1500 to 1900 UTC 23 September 2020
Forecast type: TEMPORARY: The following changes expected for less than half the time period
Winds: from the WSW (240 degrees) at 21 MPH (18 knots; 9.3 m/s)
gusting to 32 MPH (28 knots; 14.4 m/s)
Visibility: missing
Ceiling: unknown
Clouds: missing
Weather: no significant weather forecast for this period
Text: TEMPO 2315/2319 24018G28KT
Forecast period: 1800 UTC 23 September 2020 to 1500 UTC 24 September 2020
Forecast type: BECOMING: Conditions expected to become as follows by 2100 UTC 23 September 2020
Winds: variable direction winds at 2 MPH (2 knots; 1.0 m/s)
Visibility: 6 or more miles (10+ km)
Ceiling: at least 12,000 feet AGL
Clouds: few clouds at 2000 feet AGL
Weather: no significant weather forecast for this period